Time;durP1;ratioP1;P1;durP2;ratioP2;P2;SDS_P1;SDS_P2;PMS_P1;PMS_P2;Temp;Humidity;BMP_temperature;BMP_pressure;BME280_temperature;BME280_humidity;BME280_pressure;Samples;Min_cycle;Max_cycle;Signal;HPM_P1;HPM_P2
2021/04/02 00:00:16;;;;;;;7.00;6.33;;;;;;;;;;5074064;28;20183;-83
2021/04/02 00:02:42;;;;;;;6.90;6.30;;;;;;;;;;5074122;28;20180;-83
2021/04/02 00:05:08;;;;;;;6.57;5.90;;;;;;;;;;5073765;28;20182;-83
2021/04/02 00:07:33;;;;;;;6.40;5.80;;;;;;;;;;5074370;28;20210;-83
2021/04/02 00:09:58;;;;;;;6.27;5.73;;;;;;;;;;5074323;28;20171;-83
2021/04/02 00:12:24;;;;;;;7.97;6.37;;;;;;;;;;5073839;28;20227;-83
2021/04/02 00:14:49;;;;;;;6.27;5.67;;;;;;;;;;5073373;28;20163;-83
2021/04/02 00:17:14;;;;;;;6.63;6.03;;;;;;;;;;5073708;28;20628;-83
2021/04/02 00:19:39;;;;;;;6.37;5.77;;;;;;;;;;5073441;28;20576;-83
2021/04/02 00:22:05;;;;;;;5.23;4.73;;;;;;;;;;5073587;28;20634;-83
2021/04/02 00:24:30;;;;;;;4.47;4.07;;;;;;;;;;5073318;28;20259;-83
2021/04/02 00:26:56;;;;;;;5.63;3.90;;;;;;;;;;5073356;28;20254;-82
2021/04/02 00:29:21;;;;;;;4.67;4.27;;;;;;;;;;5073281;28;20175;-82
2021/04/02 00:31:47;;;;;;;5.20;4.70;;;;;;;;;;5073546;28;20209;-82
2021/04/02 00:34:12;;;;;;;4.27;3.87;;;;;;;;;;5073905;28;20585;-82
2021/04/02 00:36:38;;;;;;;4.93;4.20;;;;;;;;;;5073807;28;20254;-82
2021/04/02 00:39:03;;;;;;;5.50;3.93;;;;;;;;;;5073530;28;20257;-82
2021/04/02 00:41:29;;;;;;;4.17;3.77;;;;;;;;;;5073769;28;20215;-82
2021/04/02 00:43:54;;;;;;;5.10;4.60;;;;;;;;;;5073381;28;20178;-81
2021/04/02 00:46:20;;;;;;;5.13;4.37;;;;;;;;;;5074046;28;20247;-82
2021/04/02 00:48:46;;;;;;;5.20;4.70;;;;;;;;;;5073532;28;20191;-82
2021/04/02 00:51:22;;;;;;;4.70;4.30;;;;;;;;;;5073277;28;20627;-82
2021/04/02 00:53:47;;;;;;;4.90;4.37;;;;;;;;;;5073406;28;20544;-82
2021/04/02 00:56:13;;;;;;;4.57;4.10;;;;;;;;;;5073935;28;20163;-82
2021/04/02 00:58:39;;;;;;;4.07;3.67;;;;;;;;;;5073711;28;20184;-82
2021/04/02 01:01:05;;;;;;;4.30;3.90;;;;;;;;;;5077637;28;20199;-82
2021/04/02 01:03:31;;;;;;;4.50;4.10;;;;;;;;;;5077293;28;20179;-82
2021/04/02 01:05:58;;;;;;;4.13;3.70;;;;;;;;;;5077254;28;20171;-82
2021/04/02 01:08:24;;;;;;;5.37;4.87;;;;;;;;;;5076911;28;20175;-82
2021/04/02 01:10:51;;;;;;;5.27;4.77;;;;;;;;;;5076876;28;20172;-82
2021/04/02 01:13:17;;;;;;;4.50;4.10;;;;;;;;;;5076740;28;20238;-83
2021/04/02 01:15:52;;;;;;;5.13;4.60;;;;;;;;;;5076533;28;20576;-83
2021/04/02 01:18:33;;;;;;;4.60;4.20;;;;;;;;;;5076388;28;20227;-83
2021/04/02 01:21:00;;;;;;;5.00;4.50;;;;;;;;;;5076378;28;20182;-82
2021/04/02 01:23:29;;;;;;;4.40;4.00;;;;;;;;;;5076650;28;20179;-82
2021/04/02 01:26:01;;;;;;;4.53;4.13;;;;;;;;;;5076125;28;20520;-83
2021/04/02 01:28:43;;;;;;;4.50;4.10;;;;;;;;;;5076513;28;20163;-82
2021/04/02 01:31:09;;;;;;;5.10;4.60;;;;;;;;;;5076257;28;20212;-82
2021/04/02 01:33:35;;;;;;;4.73;4.33;;;;;;;;;;5076115;28;20567;-83
2021/04/02 01:36:01;;;;;;;4.47;4.00;;;;;;;;;;5076275;28;20167;-82
2021/04/02 01:38:28;;;;;;;4.77;3.90;;;;;;;;;;5076154;28;20182;-82
2021/04/02 01:40:57;;;;;;;5.23;4.73;;;;;;;;;;5076638;28;20181;-82
2021/04/02 01:43:30;;;;;;;4.80;4.30;;;;;;;;;;5076360;28;20177;-83
2021/04/02 01:45:56;;;;;;;4.97;4.47;;;;;;;;;;5076765;28;20543;-82
2021/04/02 01:48:21;;;;;;;5.27;4.77;;;;;;;;;;5075956;28;20167;-82
2021/04/02 01:50:49;;;;;;;4.80;4.40;;;;;;;;;;5076209;28;20289;-82
2021/04/02 01:53:16;;;;;;;5.50;4.57;;;;;;;;;;5076118;28;20207;-82
2021/04/02 01:55:41;;;;;;;5.00;4.50;;;;;;;;;;5075862;28;20178;-82
2021/04/02 01:58:07;;;;;;;4.57;4.17;;;;;;;;;;5076152;28;20522;-82
2021/04/02 02:00:38;;;;;;;5.17;4.67;;;;;;;;;;5076442;28;20191;-82
2021/04/02 02:03:03;;;;;;;5.87;4.90;;;;;;;;;;5076157;28;20175;-82
2021/04/02 02:05:29;;;;;;;5.67;5.10;;;;;;;;;;5076038;28;20179;-82
2021/04/02 02:07:55;;;;;;;5.83;4.63;;;;;;;;;;5075620;28;20618;-82
2021/04/02 02:10:21;;;;;;;4.87;4.40;;;;;;;;;;5075375;28;20165;-82
2021/04/02 02:12:47;;;;;;;6.53;5.00;;;;;;;;;;5076395;28;20280;-82
2021/04/02 02:15:13;;;;;;;4.73;4.33;;;;;;;;;;5075480;28;20182;-82
2021/04/02 02:17:41;;;;;;;4.83;4.40;;;;;;;;;;5075997;28;20175;-82
2021/04/02 02:20:08;;;;;;;4.73;4.30;;;;;;;;;;5075443;28;20185;-82
2021/04/02 02:22:33;;;;;;;4.47;4.07;;;;;;;;;;5074327;28;20524;-82
2021/04/02 02:24:59;;;;;;;6.17;4.27;;;;;;;;;;5075536;28;20171;-82
2021/04/02 02:27:25;;;;;;;5.00;4.50;;;;;;;;;;5075491;28;20175;-82
2021/04/02 02:29:50;;;;;;;4.53;4.13;;;;;;;;;;5075804;28;20203;-82
2021/04/02 02:32:15;;;;;;;4.10;3.80;;;;;;;;;;5075325;28;20599;-82
2021/04/02 02:34:41;;;;;;;5.20;4.53;;;;;;;;;;5075784;28;20257;-82
2021/04/02 02:37:06;;;;;;;5.10;4.60;;;;;;;;;;5075667;28;20174;-82
2021/04/02 02:39:32;;;;;;;3.80;3.50;;;;;;;;;;5074142;28;20266;-82
2021/04/02 02:41:57;;;;;;;3.53;3.27;;;;;;;;;;5075458;28;20177;-82
2021/04/02 02:44:23;;;;;;;3.90;3.60;;;;;;;;;;5074836;28;20258;-82
2021/04/02 02:46:49;;;;;;;3.30;3.10;;;;;;;;;;5074866;28;20167;-81
2021/04/02 02:49:15;;;;;;;3.97;3.50;;;;;;;;;;5075091;28;20168;-82
2021/04/02 02:51:41;;;;;;;3.23;2.97;;;;;;;;;;5075549;28;20167;-82
2021/04/02 02:54:08;;;;;;;3.70;3.40;;;;;;;;;;5075331;28;20171;-82
2021/04/02 02:56:36;;;;;;;3.50;3.20;;;;;;;;;;5075326;28;20168;-82
2021/04/02 02:59:02;;;;;;;4.07;3.50;;;;;;;;;;5075243;28;20164;-82
2021/04/02 03:01:29;;;;;;;3.87;3.47;;;;;;;;;;5074868;28;20195;-82
2021/04/02 03:03:55;;;;;;;4.00;3.70;;;;;;;;;;5074922;28;20497;-82
2021/04/02 03:06:22;;;;;;;3.60;3.30;;;;;;;;;;5075310;28;20296;-82
2021/04/02 03:08:49;;;;;;;3.47;3.17;;;;;;;;;;5075584;28;20179;-82
2021/04/02 03:11:16;;;;;;;3.13;2.93;;;;;;;;;;5075027;28;20178;-82
2021/04/02 03:13:42;;;;;;;3.70;3.40;;;;;;;;;;5074325;28;20253;-82
2021/04/02 03:16:10;;;;;;;3.60;3.30;;;;;;;;;;5074903;28;20562;-83
2021/04/02 03:18:36;;;;;;;3.47;2.97;;;;;;;;;;5074622;28;20522;-83
2021/04/02 03:21:02;;;;;;;3.80;3.50;;;;;;;;;;5074193;28;20163;-82
2021/04/02 03:23:27;;;;;;;4.33;3.57;;;;;;;;;;5074822;28;20297;-82
2021/04/02 03:25:53;;;;;;;3.63;3.33;;;;;;;;;;5074105;28;20167;-82
2021/04/02 03:28:19;;;;;;;4.13;3.73;;;;;;;;;;5074594;28;20177;-83
2021/04/02 03:30:45;;;;;;;4.80;4.33;;;;;;;;;;5074068;28;20700;-82
2021/04/02 03:33:13;;;;;;;4.10;3.40;;;;;;;;;;5074103;28;20669;-82
2021/04/02 03:35:39;;;;;;;8.20;3.80;;;;;;;;;;5074486;28;20574;-82
2021/04/02 03:38:06;;;;;;;3.20;2.90;;;;;;;;;;5074166;28;20622;-82
2021/04/02 03:40:32;;;;;;;4.10;3.70;;;;;;;;;;5074137;28;20198;-82
2021/04/02 03:42:58;;;;;;;4.80;3.53;;;;;;;;;;5074337;28;20597;-82
2021/04/02 03:45:25;;;;;;;5.03;2.60;;;;;;;;;;5073825;28;20617;-82
2021/04/02 03:47:52;;;;;;;3.83;3.30;;;;;;;;;;5074214;28;20163;-82
2021/04/02 03:50:18;;;;;;;4.17;3.20;;;;;;;;;;5074268;28;20246;-82
2021/04/02 03:52:45;;;;;;;3.20;2.90;;;;;;;;;;5073959;28;20195;-82
2021/04/02 03:55:16;;;;;;;3.80;3.10;;;;;;;;;;5074006;28;20172;-82
2021/04/02 03:57:42;;;;;;;2.97;2.70;;;;;;;;;;5074057;28;20633;-82
2021/04/02 04:00:20;;;;;;;3.27;2.97;;;;;;;;;;5074098;28;20268;-82
2021/04/02 04:02:46;;;;;;;2.50;2.30;;;;;;;;;;5074134;28;20171;-82
2021/04/02 04:05:14;;;;;;;2.70;2.47;;;;;;;;;;5073915;28;20195;-82
2021/04/02 04:07:43;;;;;;;2.53;2.33;;;;;;;;;;5074417;28;20624;-82
2021/04/02 04:10:09;;;;;;;2.60;2.40;;;;;;;;;;5073882;28;20171;-82
2021/04/02 04:12:36;;;;;;;5.27;3.17;;;;;;;;;;5073813;28;20223;-82
2021/04/02 04:15:01;;;;;;;4.17;2.93;;;;;;;;;;5073768;28;20173;-81
2021/04/02 04:17:27;;;;;;;4.57;3.07;;;;;;;;;;5072537;28;20523;-82
2021/04/02 04:19:53;;;;;;;3.30;3.00;;;;;;;;;;5073413;28;20178;-82
2021/04/02 04:22:22;;;;;;;4.17;3.30;;;;;;;;;;5073973;28;20179;-81
2021/04/02 04:24:48;;;;;;;4.80;3.17;;;;;;;;;;5073672;28;20197;-82
2021/04/02 04:27:14;;;;;;;3.50;3.20;;;;;;;;;;5074303;28;20175;-82
2021/04/02 04:29:45;;;;;;;3.67;3.37;;;;;;;;;;5073667;28;20179;-81
2021/04/02 04:32:14;;;;;;;4.10;3.50;;;;;;;;;;5073939;28;20210;-82
2021/04/02 04:34:40;;;;;;;3.87;3.57;;;;;;;;;;5076235;28;20175;-81
2021/04/02 04:37:06;;;;;;;4.07;3.67;;;;;;;;;;5076303;28;20501;-81
2021/04/02 04:39:32;;;;;;;4.60;3.47;;;;;;;;;;5077601;28;20168;-82
2021/04/02 04:41:58;;;;;;;6.97;4.07;;;;;;;;;;5077247;28;20183;-81
2021/04/02 04:44:25;;;;;;;4.23;3.47;;;;;;;;;;5077826;28;20193;-82
2021/04/02 04:46:51;;;;;;;4.90;3.90;;;;;;;;;;5077682;28;20178;-81
2021/04/02 04:49:16;;;;;;;5.43;4.30;;;;;;;;;;5078006;28;20250;-82
2021/04/02 04:51:41;;;;;;;5.87;4.07;;;;;;;;;;5077037;28;20175;-82
2021/04/02 04:54:07;;;;;;;4.77;3.70;;;;;;;;;;5077821;28;20167;-81
2021/04/02 04:56:33;;;;;;;5.07;4.20;;;;;;;;;;5077263;28;20175;-82
2021/04/02 04:59:02;;;;;;;7.43;5.97;;;;;;;;;;5076770;28;20182;-82
2021/04/02 05:01:30;;;;;;;6.73;4.53;;;;;;;;;;5077060;28;20201;-82
2021/04/02 05:03:56;;;;;;;7.00;4.80;;;;;;;;;;5077540;28;20179;-82
2021/04/02 05:06:23;;;;;;;5.70;3.90;;;;;;;;;;5076867;28;20228;-82
2021/04/02 05:08:50;;;;;;;7.70;6.23;;;;;;;;;;5076719;28;20205;-82
2021/04/02 05:11:16;;;;;;;5.30;4.80;;;;;;;;;;5076714;28;20257;-82
2021/04/02 05:13:43;;;;;;;8.03;7.20;;;;;;;;;;5076959;28;20261;-82
2021/04/02 05:16:09;;;;;;;6.63;5.20;;;;;;;;;;5077133;28;20171;-83
2021/04/02 05:18:35;;;;;;;5.33;4.83;;;;;;;;;;5076555;28;20175;-82
2021/04/02 05:21:01;;;;;;;4.77;4.20;;;;;;;;;;5076832;28;20177;-82
2021/04/02 05:23:26;;;;;;;8.03;6.87;;;;;;;;;;5077145;28;20233;-83
2021/04/02 05:25:51;;;;;;;4.57;4.17;;;;;;;;;;5076445;28;20751;-83
2021/04/02 05:28:17;;;;;;;6.47;4.80;;;;;;;;;;5076658;28;20171;-83
2021/04/02 05:30:42;;;;;;;4.83;4.43;;;;;;;;;;5076822;28;20254;-83
2021/04/02 05:33:08;;;;;;;7.27;3.87;;;;;;;;;;5076807;28;20206;-83
2021/04/02 05:35:34;;;;;;;4.73;4.33;;;;;;;;;;5076791;28;20171;-81
2021/04/02 05:38:00;;;;;;;4.43;4.03;;;;;;;;;;5076244;28;20216;-81
2021/04/02 05:40:25;;;;;;;6.40;5.63;;;;;;;;;;5076462;28;20163;-81
2021/04/02 05:43:11;;;;;;;4.50;4.10;;;;;;;;;;5076656;28;20210;-81
2021/04/02 05:45:37;;;;;;;4.85;4.43;;;;;;;;;;5075267;28;20183;-81
2021/04/02 05:48:03;;;;;;;4.90;4.50;;;;;;;;;;5076001;28;20175;-81
2021/04/02 05:50:32;;;;;;;4.75;3.83;;;;;;;;;;5075051;28;20175;-81
2021/04/02 05:53:01;;;;;;;4.57;4.18;;;;;;;;;;5076059;28;20249;-81
2021/04/02 05:55:27;;;;;;;4.90;4.50;;;;;;;;;;5075881;28;20159;-83
2021/04/02 05:57:52;;;;;;;4.90;4.50;;;;;;;;;;5076368;28;20178;-81
2021/04/02 06:00:17;;;;;;;4.70;4.30;;;;;;;;;;5075806;28;20213;-81
2021/04/02 06:02:43;;;;;;;4.93;4.40;;;;;;;;;;5076514;28;20171;-81
2021/04/02 06:05:09;;;;;;;5.68;5.18;;;;;;;;;;5075699;28;20525;-81
2021/04/02 06:07:36;;;;;;;4.90;4.38;;;;;;;;;;5076475;28;20603;-81
2021/04/02 06:10:02;;;;;;;4.90;4.50;;;;;;;;;;5076148;28;20191;-81
2021/04/02 06:12:28;;;;;;;5.22;4.80;;;;;;;;;;5075380;28;20265;-81
2021/04/02 06:14:53;;;;;;;5.82;4.75;;;;;;;;;;5075738;28;20685;-81
2021/04/02 06:17:18;;;;;;;6.55;5.95;;;;;;;;;;5076005;28;20176;-81
2021/04/02 06:19:43;;;;;;;5.10;4.65;;;;;;;;;;5075367;28;20172;-81
2021/04/02 06:22:09;;;;;;;6.00;5.55;;;;;;;;;;5075346;28;20175;-81
2021/04/02 06:24:36;;;;;;;6.85;6.20;;;;;;;;;;5075270;28;20175;-81
2021/04/02 06:27:02;;;;;;;4.40;4.00;;;;;;;;;;5076106;28;20175;-81
2021/04/02 06:29:29;;;;;;;5.47;4.97;;;;;;;;;;5076264;28;20609;-81
2021/04/02 06:31:54;;;;;;;5.78;5.05;;;;;;;;;;5075192;28;20525;-81
2021/04/02 06:34:20;;;;;;;5.88;5.30;;;;;;;;;;5075382;28;20159;-81
2021/04/02 06:36:45;;;;;;;5.60;4.78;;;;;;;;;;5075351;28;20171;-81
2021/04/02 06:39:11;;;;;;;4.97;4.57;;;;;;;;;;5074910;28;20690;-81
2021/04/02 06:41:36;;;;;;;5.22;4.70;;;;;;;;;;5075118;28;20190;-81
2021/04/02 06:44:03;;;;;;;6.35;5.85;;;;;;;;;;5074722;28;20262;-81
2021/04/02 06:46:29;;;;;;;5.38;4.90;;;;;;;;;;5075162;28;20205;-82
2021/04/02 06:48:56;;;;;;;4.97;4.57;;;;;;;;;;5075278;28;20163;-82
2021/04/02 06:51:23;;;;;;;5.00;4.60;;;;;;;;;;5074565;28;20171;-81
2021/04/02 06:53:50;;;;;;;5.50;5.00;;;;;;;;;;5074858;28;20248;-81
2021/04/02 06:56:16;;;;;;;6.22;5.60;;;;;;;;;;5073851;28;20179;-82
2021/04/02 06:58:42;;;;;;;5.30;4.90;;;;;;;;;;5074888;28;20297;-81
2021/04/02 07:01:09;;;;;;;5.65;5.15;;;;;;;;;;5074464;28;20183;-82
2021/04/02 07:03:35;;;;;;;5.07;4.65;;;;;;;;;;5075462;28;20167;-81
2021/04/02 07:06:01;;;;;;;5.60;5.10;;;;;;;;;;5074730;28;20262;-81
2021/04/02 07:08:27;;;;;;;4.93;4.43;;;;;;;;;;5073295;28;20179;-82
2021/04/02 07:10:54;;;;;;;5.90;5.40;;;;;;;;;;5074870;28;20167;-81
2021/04/02 07:13:20;;;;;;;6.63;6.13;;;;;;;;;;5075715;28;20725;-82
2021/04/02 07:15:45;;;;;;;5.55;5.05;;;;;;;;;;5074297;28;20171;-81
2021/04/02 07:18:14;;;;;;;6.45;5.95;;;;;;;;;;5074909;28;20269;-81
2021/04/02 07:20:39;;;;;;;5.70;5.20;;;;;;;;;;5075047;28;20675;-81
2021/04/02 07:23:04;;;;;;;5.38;4.97;;;;;;;;;;5074519;28;20250;-82
2021/04/02 07:25:31;;;;;;;6.05;5.55;;;;;;;;;;5074351;28;20240;-82
2021/04/02 07:27:57;;;;;;;5.50;5.10;;;;;;;;;;5074693;28;20617;-81
2021/04/02 07:30:23;;;;;;;5.72;4.90;;;;;;;;;;5073927;28;20163;-82
2021/04/02 07:32:49;;;;;;;6.13;5.63;;;;;;;;;;5073795;28;20617;-81
2021/04/02 07:35:19;;;;;;;9.85;9.15;;;;;;;;;;5073892;28;20171;-82
2021/04/02 07:37:48;;;;;;;4.57;4.13;;;;;;;;;;5073600;28;20911;-82
2021/04/02 07:40:14;;;;;;;4.30;4.00;;;;;;;;;;5072371;28;20171;-82
2021/04/02 07:42:39;;;;;;;8.15;7.22;;;;;;;;;;5072371;28;20175;-82
2021/04/02 07:45:05;;;;;;;4.20;3.90;;;;;;;;;;5072034;28;20163;-82
2021/04/02 07:47:31;;;;;;;4.13;3.83;;;;;;;;;;5072517;28;20502;-83
2021/04/02 07:49:58;;;;;;;6.88;6.28;;;;;;;;;;5072357;28;20220;-81
2021/04/02 07:52:39;;;;;;;4.90;4.57;;;;;;;;;;5074206;28;20203;-81
2021/04/02 07:55:06;;;;;;;4.50;4.20;;;;;;;;;;5074273;28;20155;-81
2021/04/02 07:57:47;;;;;;;4.68;4.28;;;;;;;;;;5072000;28;20514;-82
2021/04/02 08:00:13;;;;;;;7.30;5.45;;;;;;;;;;5068163;28;20199;-82
2021/04/02 08:02:38;;;;;;;4.07;3.63;;;;;;;;;;5071746;28;20244;-82
2021/04/02 08:05:12;;;;;;;5.53;5.03;;;;;;;;;;5063514;28;20164;-82
2021/04/02 08:07:42;;;;;;;7.85;7.05;;;;;;;;;;5063072;28;20197;-82
2021/04/02 08:10:11;;;;;;;50.60;44.83;;;;;;;;;;5062312;28;20168;-81
2021/04/02 08:12:37;;;;;;;4.32;3.95;;;;;;;;;;5061862;28;20333;-83
2021/04/02 08:15:16;;;;;;;5.40;4.90;;;;;;;;;;5061556;28;20267;-83
2021/04/02 08:17:42;;;;;;;4.68;4.28;;;;;;;;;;5064070;28;20232;-83
2021/04/02 08:20:09;;;;;;;7.03;4.60;;;;;;;;;;5071869;28;20167;-83
2021/04/02 08:22:35;;;;;;;4.53;4.23;;;;;;;;;;5071987;28;20178;-83
2021/04/02 08:25:01;;;;;;;48.13;31.90;;;;;;;;;;5071642;28;20171;-83
2021/04/02 08:27:29;;;;;;;21.13;16.30;;;;;;;;;;5071990;28;20316;-81
2021/04/02 08:30:02;;;;;;;22.77;17.80;;;;;;;;;;5072056;28;20254;-81
2021/04/02 08:32:27;;;;;;;32.50;24.07;;;;;;;;;;5073376;28;20656;-81
2021/04/02 08:34:53;;;;;;;420.33;300.03;;;;;;;;;;5073368;28;20254;-81
2021/04/02 08:37:19;;;;;;;32.13;24.90;;;;;;;;;;5074004;28;20167;-81
2021/04/02 08:39:44;;;;;;;119.70;77.03;;;;;;;;;;5073464;28;20171;-81
2021/04/02 08:42:10;;;;;;;8.00;7.20;;;;;;;;;;5073205;28;20167;-81
2021/04/02 08:44:40;;;;;;;8.10;7.13;;;;;;;;;;5073800;28;20305;-81
2021/04/02 08:47:06;;;;;;;8.57;5.50;;;;;;;;;;5073470;28;20163;-81
2021/04/02 08:49:35;;;;;;;6.67;6.03;;;;;;;;;;5073703;28;20569;-81
2021/04/02 08:52:04;;;;;;;21.67;14.90;;;;;;;;;;5055292;28;20176;-81
2021/04/02 08:54:30;;;;;;;5.97;5.47;;;;;;;;;;5053337;28;20248;-81
2021/04/02 08:56:55;;;;;;;6.23;5.63;;;;;;;;;;5061424;28;20262;-80
2021/04/02 08:59:20;;;;;;;5.73;5.17;;;;;;;;;;5070020;28;20182;-81
2021/04/02 09:01:46;;;;;;;7.00;5.90;;;;;;;;;;5051228;28;20290;-80
2021/04/02 09:04:13;;;;;;;6.80;6.10;;;;;;;;;;5052904;28;20168;-80
2021/04/02 09:06:39;;;;;;;7.67;6.60;;;;;;;;;;5052597;28;20182;-81
2021/04/02 09:09:12;;;;;;;7.43;6.40;;;;;;;;;;5053215;28;20254;-82
2021/04/02 09:11:37;;;;;;;5.70;5.03;;;;;;;;;;5052551;28;20165;-82
2021/04/02 09:14:07;;;;;;;5.37;4.87;;;;;;;;;;5052878;28;20294;-81
2021/04/02 09:16:35;;;;;;;9.63;8.63;;;;;;;;;;5052764;28;20179;-82
2021/04/02 09:19:00;;;;;;;25.70;18.77;;;;;;;;;;5052448;28;20182;-82
2021/04/02 09:21:26;;;;;;;7.73;7.03;;;;;;;;;;5054418;28;20172;-81
2021/04/02 09:23:52;;;;;;;9.90;7.50;;;;;;;;;;5054569;28;20182;-82
2021/04/02 09:26:18;;;;;;;9.17;6.10;;;;;;;;;;5054363;28;20748;-82
2021/04/02 09:28:44;;;;;;;5.80;5.27;;;;;;;;;;5054734;28;20261;-81
2021/04/02 09:31:14;;;;;;;4.97;4.47;;;;;;;;;;5053228;28;20176;-82
2021/04/02 09:33:43;;;;;;;36.40;22.20;;;;;;;;;;5054560;28;20199;-81
2021/04/02 09:36:09;;;;;;;7.20;6.03;;;;;;;;;;5054324;28;20538;-82
2021/04/02 09:38:35;;;;;;;6.70;5.53;;;;;;;;;;5054767;28;20176;-82
2021/04/02 09:41:00;;;;;;;5.83;5.23;;;;;;;;;;5054382;28;20164;-82
2021/04/02 09:43:25;;;;;;;23.57;12.33;;;;;;;;;;5055515;28;20175;-82
2021/04/02 09:45:51;;;;;;;12.73;8.97;;;;;;;;;;5062498;28;20517;-82
2021/04/02 09:48:20;;;;;;;12.20;7.80;;;;;;;;;;5066169;28;20190;-82
2021/04/02 09:50:46;;;;;;;8.57;6.70;;;;;;;;;;5053862;28;20178;-82
2021/04/02 09:53:12;;;;;;;5.70;5.20;;;;;;;;;;5066792;28;20555;-82
2021/04/02 09:55:37;;;;;;;5.40;4.90;;;;;;;;;;5074105;28;20182;-83
2021/04/02 09:58:02;;;;;;;50.90;34.83;;;;;;;;;;5074115;28;20282;-83
2021/04/02 10:00:27;;;;;;;7.00;6.30;;;;;;;;;;5074806;28;20195;-83
2021/04/02 10:02:53;;;;;;;25.10;16.57;;;;;;;;;;5076162;28;20232;-83
2021/04/02 10:05:18;;;;;;;69.37;36.90;;;;;;;;;;5075668;28;20170;-83
2021/04/02 10:07:52;;;;;;;16.50;10.03;;;;;;;;;;5072457;28;20553;-83
2021/04/02 10:10:18;;;;;;;10.13;7.53;;;;;;;;;;5075483;28;20601;-83
2021/04/02 10:12:43;;;;;;;10.40;8.00;;;;;;;;;;5073815;28;20237;-83
2021/04/02 10:15:09;;;;;;;7.13;5.37;;;;;;;;;;5075576;28;20197;-83
2021/04/02 10:17:34;;;;;;;7.50;6.37;;;;;;;;;;5075735;28;20202;-83
2021/04/02 10:20:00;;;;;;;4.30;3.90;;;;;;;;;;5074554;28;20231;-83
2021/04/02 10:22:26;;;;;;;8.87;7.13;;;;;;;;;;5074896;28;20183;-83
2021/04/02 10:24:51;;;;;;;7.20;5.77;;;;;;;;;;5075149;28;20677;-82
2021/04/02 10:27:16;;;;;;;4.47;4.07;;;;;;;;;;5073494;28;20179;-83
2021/04/02 10:29:42;;;;;;;6.43;4.27;;;;;;;;;;5074180;28;20171;-83
2021/04/02 10:32:08;;;;;;;10.87;8.57;;;;;;;;;;5073273;28;20198;-82
2021/04/02 10:34:33;;;;;;;12.53;9.70;;;;;;;;;;5073249;28;20220;-82
2021/04/02 10:36:58;;;;;;;78.47;45.10;;;;;;;;;;5072694;28;20510;-83
2021/04/02 10:39:24;;;;;;;14.50;10.30;;;;;;;;;;5072576;28;20217;-83
2021/04/02 10:41:49;;;;;;;54.10;29.00;;;;;;;;;;5073528;28;20171;-83
2021/04/02 10:44:14;;;;;;;21.57;13.87;;;;;;;;;;5071301;28;20171;-83
2021/04/02 10:46:39;;;;;;;4.67;4.13;;;;;;;;;;5066316;28;20179;-82
2021/04/02 10:49:05;;;;;;;21.00;12.13;;;;;;;;;;5073492;28;20518;-83
2021/04/02 10:51:30;;;;;;;5.73;5.00;;;;;;;;;;5070175;28;20596;-83
2021/04/02 10:54:05;;;;;;;5.50;4.23;;;;;;;;;;5063730;28;20322;-82
2021/04/02 10:56:31;;;;;;;11.63;8.23;;;;;;;;;;5065099;28;20167;-82
2021/04/02 10:58:57;;;;;;;6.80;5.10;;;;;;;;;;5065624;28;20175;-82
2021/04/02 11:01:22;;;;;;;19.17;9.77;;;;;;;;;;5072700;28;20918;-81
2021/04/02 11:03:48;;;;;;;6.37;5.10;;;;;;;;;;5072731;28;20537;-82
2021/04/02 11:06:13;;;;;;;43.87;23.97;;;;;;;;;;5071488;28;20182;-82
2021/04/02 11:08:38;;;;;;;7.67;5.70;;;;;;;;;;5060154;28;20172;-82
2021/04/02 11:11:04;;;;;;;9.73;6.17;;;;;;;;;;5054829;28;20175;-81
2021/04/02 11:13:29;;;;;;;5.90;5.30;;;;;;;;;;5054570;28;20227;-80
2021/04/02 11:15:54;;;;;;;5.70;5.20;;;;;;;;;;5054232;28;20181;-80
2021/04/02 11:18:20;;;;;;;15.43;9.57;;;;;;;;;;5054179;28;20170;-82
2021/04/02 11:20:45;;;;;;;7.50;5.83;;;;;;;;;;5053210;28;20178;-80
2021/04/02 11:23:16;;;;;;;9.67;6.37;;;;;;;;;;5053102;28;20211;-80
2021/04/02 11:25:41;;;;;;;10.03;7.23;;;;;;;;;;5054360;28;20211;-81
2021/04/02 11:28:06;;;;;;;6.60;5.67;;;;;;;;;;5053193;28;20576;-81
2021/04/02 11:30:32;;;;;;;6.20;5.60;;;;;;;;;;5052769;28;20175;-80
2021/04/02 11:32:57;;;;;;;10.23;6.73;;;;;;;;;;5057789;28;20540;-81
2021/04/02 11:35:22;;;;;;;7.00;5.90;;;;;;;;;;5054048;28;20237;-80
2021/04/02 11:37:48;;;;;;;6.60;5.90;;;;;;;;;;5054097;28;20207;-80
2021/04/02 11:40:16;;;;;;;15.00;8.20;;;;;;;;;;5053801;28;20191;-81
2021/04/02 11:42:41;;;;;;;7.63;5.93;;;;;;;;;;5053645;28;20187;-81
2021/04/02 11:45:07;;;;;;;8.03;6.63;;;;;;;;;;5052912;28;20168;-81
2021/04/02 11:47:33;;;;;;;6.73;6.03;;;;;;;;;;5052284;28;20522;-81
2021/04/02 11:49:58;;;;;;;6.60;5.97;;;;;;;;;;5057542;28;20171;-81
2021/04/02 11:52:24;;;;;;;7.27;5.50;;;;;;;;;;5060777;28;20211;-81
2021/04/02 11:54:49;;;;;;;9.43;7.43;;;;;;;;;;5069336;28;20167;-80
2021/04/02 11:57:15;;;;;;;9.87;6.47;;;;;;;;;;5071865;28;20175;-80
2021/04/02 11:59:40;;;;;;;8.53;6.90;;;;;;;;;;5071707;28;20246;-81
2021/04/02 12:02:05;;;;;;;5.83;5.33;;;;;;;;;;5071390;28;20274;-81
2021/04/02 12:04:31;;;;;;;7.17;6.17;;;;;;;;;;5071797;28;20167;-80
2021/04/02 12:06:56;;;;;;;6.57;5.87;;;;;;;;;;5071777;28;20163;-81
2021/04/02 12:09:21;;;;;;;8.33;6.97;;;;;;;;;;5072012;28;20172;-81
2021/04/02 12:11:47;;;;;;;9.27;6.70;;;;;;;;;;5071736;28;20225;-81
2021/04/02 12:14:12;;;;;;;9.37;6.90;;;;;;;;;;5072097;28;20222;-81
2021/04/02 12:16:38;;;;;;;7.10;6.40;;;;;;;;;;5071555;28;20258;-81
2021/04/02 12:19:04;;;;;;;7.37;6.30;;;;;;;;;;5072219;28;20168;-82
2021/04/02 12:21:29;;;;;;;8.50;6.70;;;;;;;;;;5070492;28;20163;-81
2021/04/02 12:23:54;;;;;;;7.53;6.20;;;;;;;;;;5051882;28;20168;-81
2021/04/02 12:26:20;;;;;;;7.20;6.50;;;;;;;;;;5054463;28;20638;-80
2021/04/02 12:28:46;;;;;;;7.77;6.50;;;;;;;;;;5051483;28;20627;-81
2021/04/02 12:31:11;;;;;;;8.47;6.80;;;;;;;;;;5051879;28;20518;-81
2021/04/02 12:33:37;;;;;;;7.80;7.00;;;;;;;;;;5051444;28;20239;-81
2021/04/02 12:36:03;;;;;;;8.00;6.77;;;;;;;;;;5051747;28;20168;-81
2021/04/02 12:38:28;;;;;;;9.33;7.37;;;;;;;;;;5051550;28;20175;-81
2021/04/02 12:40:53;;;;;;;7.77;6.60;;;;;;;;;;5051635;28;20198;-81
2021/04/02 12:43:19;;;;;;;7.27;6.30;;;;;;;;;;5051754;28;20206;-81
2021/04/02 12:45:44;;;;;;;7.73;6.93;;;;;;;;;;5051991;28;20211;-81
2021/04/02 12:48:09;;;;;;;9.27;6.33;;;;;;;;;;5053098;28;20171;-81
2021/04/02 12:50:35;;;;;;;7.37;6.67;;;;;;;;;;5061437;28;20182;-80
2021/04/02 12:53:01;;;;;;;6.57;5.80;;;;;;;;;;5063928;28;20566;-81
2021/04/02 12:55:29;;;;;;;6.27;5.23;;;;;;;;;;5063905;28;20179;-80
2021/04/02 12:57:55;;;;;;;6.30;5.70;;;;;;;;;;5066986;28;20171;-80
2021/04/02 13:00:21;;;;;;;5.80;5.30;;;;;;;;;;5067412;28;20171;-80
2021/04/02 13:02:47;;;;;;;6.93;6.00;;;;;;;;;;5065632;28;20194;-80
2021/04/02 13:05:13;;;;;;;6.13;5.53;;;;;;;;;;5067284;28;20610;-80
2021/04/02 13:07:38;;;;;;;7.30;6.60;;;;;;;;;;5067124;28;20176;-81
2021/04/02 13:10:04;;;;;;;6.47;5.77;;;;;;;;;;5065170;28;20180;-80
2021/04/02 13:12:30;;;;;;;8.00;7.20;;;;;;;;;;5067118;28;20253;-80
2021/04/02 13:14:55;;;;;;;8.90;8.00;;;;;;;;;;5064471;28;20188;-81
2021/04/02 13:17:20;;;;;;;7.47;6.70;;;;;;;;;;5065397;28;20646;-81
2021/04/02 13:19:46;;;;;;;5.93;5.43;;;;;;;;;;5065340;28;20180;-81
2021/04/02 13:22:11;;;;;;;5.83;5.23;;;;;;;;;;5064670;28;20221;-81
2021/04/02 13:24:37;;;;;;;6.97;6.30;;;;;;;;;;5063745;28;20709;-81
2021/04/02 13:27:03;;;;;;;6.87;6.20;;;;;;;;;;5065377;28;20171;-81
2021/04/02 13:29:28;;;;;;;7.23;6.50;;;;;;;;;;5063619;28;20171;-81
2021/04/02 13:31:53;;;;;;;6.70;6.10;;;;;;;;;;5064677;28;20249;-81
2021/04/02 13:34:19;;;;;;;7.67;6.87;;;;;;;;;;5074869;28;20211;-81
2021/04/02 13:36:44;;;;;;;8.00;7.20;;;;;;;;;;5074630;28;20249;-81
2021/04/02 13:39:10;;;;;;;7.73;7.03;;;;;;;;;;5074792;28;20626;-81
2021/04/02 13:41:38;;;;;;;8.10;7.30;;;;;;;;;;5071457;28;20174;-81
2021/04/02 13:44:04;;;;;;;7.70;6.90;;;;;;;;;;5065058;28;20175;-81
2021/04/02 13:46:29;;;;;;;8.13;7.30;;;;;;;;;;5060800;28;20191;-81
2021/04/02 13:48:55;;;;;;;9.37;8.30;;;;;;;;;;5064910;28;20194;-81
2021/04/02 13:51:20;;;;;;;11.13;9.03;;;;;;;;;;5066549;28;20264;-81
2021/04/02 13:53:45;;;;;;;9.23;8.27;;;;;;;;;;5063182;28;20662;-81
2021/04/02 13:56:11;;;;;;;8.30;7.50;;;;;;;;;;5064686;28;20182;-81
2021/04/02 13:58:36;;;;;;;8.27;7.47;;;;;;;;;;5065794;28;20242;-81
2021/04/02 14:01:01;;;;;;;11.83;10.17;;;;;;;;;;5065168;28;20203;-81
2021/04/02 14:03:27;;;;;;;11.00;9.40;;;;;;;;;;5064456;28;20171;-81
2021/04/02 14:05:52;;;;;;;11.07;9.47;;;;;;;;;;5063787;28;20240;-81
2021/04/02 14:08:17;;;;;;;23.00;15.03;;;;;;;;;;5064554;28;20220;-80
2021/04/02 14:10:43;;;;;;;12.00;10.77;;;;;;;;;;5058176;28;20167;-80
2021/04/02 14:13:09;;;;;;;11.73;10.50;;;;;;;;;;5069293;28;20673;-80
2021/04/02 14:15:35;;;;;;;12.70;11.50;;;;;;;;;;5076126;28;20503;-80
2021/04/02 14:18:01;;;;;;;13.00;11.70;;;;;;;;;;5066042;28;20680;-80
2021/04/02 14:20:28;;;;;;;16.30;14.07;;;;;;;;;;5064843;28;20266;-82
2021/04/02 14:22:54;;;;;;;13.93;12.53;;;;;;;;;;5062761;28;20168;-81
2021/04/02 14:25:19;;;;;;;12.93;11.53;;;;;;;;;;5063441;28;20174;-81
2021/04/02 14:27:45;;;;;;;12.70;11.50;;;;;;;;;;5064191;28;20183;-81
2021/04/02 14:30:15;;;;;;;12.30;11.20;;;;;;;;;;5064093;28;20172;-81
2021/04/02 14:32:41;;;;;;;12.10;10.30;;;;;;;;;;5057400;28;20204;-81
2021/04/02 14:35:10;;;;;;;12.57;10.17;;;;;;;;;;5053454;28;20229;-81